Time;durP1;ratioP1;P1;durP2;ratioP2;P2;SDS_P1;SDS_P2;PMS_P1;PMS_P2;Temp;Humidity;BMP_temperature;BMP_pressure;BME280_temperature;BME280_humidity;BME280_pressure;Samples;Min_cycle;Max_cycle;Signal;HPM_P1;HPM_P2
2023/03/14 00:01:28;;;;;;;28.00;3.45;;;;;;;8.57;100.00;97394.81;5097986;28;20028;-66
2023/03/14 00:03:53;;;;;;;31.80;4.45;;;;;;;8.51;100.00;97377.94;5060619;28;20119;-65
2023/03/14 00:06:19;;;;;;;33.88;4.10;;;;;;;8.58;100.00;97410.63;5098666;28;20027;-66
2023/03/14 00:08:45;;;;;;;30.92;3.80;;;;;;;8.59;100.00;97414.13;5110210;28;20031;-68
2023/03/14 00:11:13;;;;;;;27.25;4.00;;;;;;;8.47;100.00;97403.66;5108196;28;20049;-65
2023/03/14 00:13:39;;;;;;;28.85;3.85;;;;;;;8.56;100.00;97417.31;5098683;28;20028;-66
2023/03/14 00:16:12;;;;;;;26.15;3.72;;;;;;;8.62;100.00;97427.78;5099045;28;20024;-65
2023/03/14 00:18:38;;;;;;;31.75;4.45;;;;;;;8.65;100.00;97432.59;5099354;28;20575;-66
2023/03/14 00:21:05;;;;;;;35.13;5.10;;;;;;;8.57;100.00;97426.97;5099761;28;20020;-65
2023/03/14 00:23:32;;;;;;;34.10;3.85;;;;;;;8.59;100.00;97430.19;5099726;28;20043;-65
2023/03/14 00:26:02;;;;;;;31.20;3.95;;;;;;;8.66;100.00;97438.75;5098672;28;20028;-66
2023/03/14 00:28:28;;;;;;;32.70;4.70;;;;;;;8.48;100.00;97424.03;5098806;28;20043;-65
2023/03/14 00:30:53;;;;;;;29.75;3.67;;;;;;;8.55;100.00;97450.56;5098846;28;20491;-64
2023/03/14 00:33:19;;;;;;;28.63;3.58;;;;;;;8.42;100.00;97431.25;5098683;28;20395;-65
2023/03/14 00:36:03;;;;;;;29.30;3.30;;;;;;;8.68;100.00;97450.03;5100473;28;20088;-65
2023/03/14 00:38:30;;;;;;;37.15;4.20;;;;;;;8.56;100.00;97454.84;5097715;28;20034;-66
2023/03/14 00:40:56;;;;;;;38.72;5.25;;;;;;;8.50;100.00;97461.28;5101149;28;20098;-65
2023/03/14 00:43:21;;;;;;;36.35;4.05;;;;;;;8.54;100.00;97459.66;5100731;28;20032;-65
2023/03/14 00:45:48;;;;;;;30.70;4.15;;;;;;;8.33;100.00;97458.81;5100910;28;20177;-65
2023/03/14 00:48:14;;;;;;;30.95;4.45;;;;;;;8.29;100.00;97468.47;5101499;28;20036;-66
2023/03/14 00:50:39;;;;;;;31.42;3.58;;;;;;;8.05;100.00;97466.28;5101116;28;20407;-65
2023/03/14 00:53:05;;;;;;;23.23;3.40;;;;;;;8.09;100.00;97467.34;5096604;28;20036;-65
2023/03/14 00:55:30;;;;;;;28.77;3.83;;;;;;;8.15;100.00;97484.25;5097532;28;20252;-66
2023/03/14 00:57:56;;;;;;;32.92;4.22;;;;;;;8.24;100.00;97488.00;5101509;28;20032;-65
2023/03/14 01:00:21;;;;;;;30.65;3.60;;;;;;;8.16;100.00;97497.34;5082557;28;20039;-65
2023/03/14 01:02:47;;;;;;;23.85;3.22;;;;;;;8.00;100.00;97507.22;5079572;28;20039;-64
2023/03/14 01:05:12;;;;;;;28.60;2.80;;;;;;;7.85;100.00;97501.03;5096830;28;20074;-65
2023/03/14 01:07:38;;;;;;;36.78;3.90;;;;;;;7.97;100.00;97514.97;5100569;28;20530;-65
2023/03/14 01:10:05;;;;;;;29.23;3.03;;;;;;;7.87;100.00;97518.41;5098223;28;20048;-65
2023/03/14 01:12:30;;;;;;;23.98;3.03;;;;;;;7.75;100.00;97515.97;5098378;28;20083;-65
2023/03/14 01:14:56;;;;;;;35.60;4.38;;;;;;;7.71;100.00;97525.56;5098399;28;20543;-65
2023/03/14 01:17:22;;;;;;;21.67;2.67;;;;;;;7.81;100.00;97524.81;5098173;28;20046;-65
2023/03/14 01:19:48;;;;;;;16.63;2.45;;;;;;;7.76;100.00;97514.91;5099015;28;20540;-65
2023/03/14 01:22:13;;;;;;;23.55;3.38;;;;;;;7.68;100.00;97512.75;5098439;28;20475;-65
2023/03/14 01:24:38;;;;;;;24.77;2.95;;;;;;;7.68;100.00;97512.75;5081553;28;20101;-65
2023/03/14 01:27:04;;;;;;;26.83;3.30;;;;;;;7.71;100.00;97511.38;5103236;28;20024;-65
2023/03/14 01:29:30;;;;;;;26.95;3.20;;;;;;;7.70;100.00;97517.81;5101557;28;20472;-65
2023/03/14 01:31:55;;;;;;;18.40;2.90;;;;;;;7.66;100.00;97522.88;5103293;28;20049;-65
2023/03/14 01:34:20;;;;;;;18.40;2.28;;;;;;;7.50;100.00;97531.91;5103837;28;20038;-66
2023/03/14 01:36:46;;;;;;;22.30;2.67;;;;;;;7.67;100.00;97532.53;5103530;28;20118;-65
2023/03/14 01:39:12;;;;;;;25.35;2.63;;;;;;;7.61;100.00;97544.25;5085442;28;20031;-65
2023/03/14 01:41:39;;;;;;;27.58;2.83;;;;;;;7.69;100.00;97533.06;5102534;28;20514;-64
2023/03/14 01:44:04;;;;;;;20.90;2.35;;;;;;;7.70;100.00;97541.91;5102265;28;20035;-65
2023/03/14 01:46:39;;;;;;;21.00;2.60;;;;;;;7.69;100.00;97545.66;5085336;28;20036;-65
2023/03/14 01:49:14;;;;;;;21.60;2.47;;;;;;;7.61;100.00;97538.91;5103353;28;20027;-65
2023/03/14 01:51:58;;;;;;;22.25;2.88;;;;;;;7.59;100.00;97551.75;5103390;28;20024;-65
2023/03/14 01:54:46;;;;;;;32.60;3.25;;;;;;;7.58;100.00;97546.66;5103358;28;20039;-65
2023/03/14 01:57:19;;;;;;;20.00;2.53;;;;;;;7.69;100.00;97554.47;5104140;28;20028;-65
2023/03/14 02:00:05;;;;;;;31.45;3.03;;;;;;;7.60;100.00;97556.03;5099651;28;20421;-65
2023/03/14 02:02:31;;;;;;;17.88;2.42;;;;;;;7.69;100.00;97553.69;5097038;28;20024;-64
2023/03/14 02:04:58;;;;;;;22.77;2.80;;;;;;;7.56;100.00;97532.75;5098880;28;20024;-66
2023/03/14 02:07:37;;;;;;;20.80;2.15;;;;;;;7.40;100.00;97513.91;5102925;28;20028;-65
2023/03/14 02:10:03;;;;;;;18.20;3.20;;;;;;;7.60;100.00;97550.69;5100632;28;20031;-65
2023/03/14 02:12:29;;;;;;;21.02;2.30;;;;;;;7.39;100.00;97541.75;5099862;28;20020;-65
2023/03/14 02:14:55;;;;;;;19.20;2.63;;;;;;;7.50;100.00;97551.44;5101818;28;20061;-65
2023/03/14 02:17:22;;;;;;;29.38;3.13;;;;;;;7.58;100.00;97552.00;5102527;28;20031;-65
2023/03/14 02:20:00;;;;;;;29.85;2.60;;;;;;;7.59;100.00;97553.63;5102428;28;20047;-66
2023/03/14 02:22:25;;;;;;;27.20;2.72;;;;;;;7.52;100.00;97545.84;5102228;28;20421;-65
2023/03/14 02:25:08;;;;;;;35.20;3.72;;;;;;;7.54;100.00;97549.84;5100551;28;20069;-64
2023/03/14 02:27:34;;;;;;;31.08;3.50;;;;;;;7.49;100.00;97532.97;5102524;28;20039;-64
2023/03/14 02:30:01;;;;;;;26.30;2.75;;;;;;;7.57;100.00;97545.03;5100549;28;20027;-65
2023/03/14 02:32:31;;;;;;;24.10;2.90;;;;;;;7.58;100.00;97558.16;5101402;28;20030;-65
2023/03/14 02:34:58;;;;;;;27.15;2.95;;;;;;;7.57;100.00;97556.56;5101285;28;20020;-65
2023/03/14 02:37:34;;;;;;;25.52;3.17;;;;;;;7.50;100.00;97556.78;5099513;28;20043;-66
2023/03/14 02:40:00;;;;;;;24.20;2.72;;;;;;;7.41;100.00;97554.84;5100167;28;20038;-65
2023/03/14 02:42:25;;;;;;;23.15;2.90;;;;;;;7.47;100.00;97548.47;5101040;28;20095;-65
2023/03/14 02:44:53;;;;;;;27.75;3.35;;;;;;;7.52;100.00;97543.97;5100256;28;20339;-64
2023/03/14 02:47:22;;;;;;;25.50;2.78;;;;;;;7.51;100.00;97536.97;5100928;28;20028;-66
2023/03/14 02:49:48;;;;;;;29.55;2.58;;;;;;;7.18;100.00;97475.81;5101102;28;20028;-65
2023/03/14 02:52:13;;;;;;;29.42;2.67;;;;;;;7.58;100.00;97542.09;5083062;28;20096;-65
2023/03/14 02:54:39;;;;;;;26.67;2.90;;;;;;;7.60;100.00;97560.59;5101489;28;20032;-65
2023/03/14 02:57:04;;;;;;;28.67;3.08;;;;;;;7.58;100.00;97554.69;5082757;28;20036;-65
2023/03/14 02:59:29;;;;;;;26.52;2.65;;;;;;;7.52;100.00;97545.84;5098363;28;20063;-65
2023/03/14 03:01:55;;;;;;;25.52;3.00;;;;;;;7.53;100.00;97555.47;5101297;28;20039;-65
2023/03/14 03:04:20;;;;;;;23.92;2.88;;;;;;;7.61;100.00;97554.97;5110149;28;20028;-65
2023/03/14 03:06:46;;;;;;;24.65;2.53;;;;;;;7.66;100.00;97559.56;5099665;28;20036;-65
2023/03/14 03:09:11;;;;;;;28.33;3.10;;;;;;;7.56;100.00;97549.59;5096988;28;20054;-65
2023/03/14 03:11:37;;;;;;;22.50;3.20;;;;;;;7.62;100.00;97558.47;5098208;28;20039;-65
2023/03/14 03:14:02;;;;;;;29.05;3.22;;;;;;;7.61;100.00;97552.28;5098862;28;20028;-65
2023/03/14 03:16:27;;;;;;;23.35;2.90;;;;;;;7.60;100.00;97557.91;5099633;28;20032;-65
2023/03/14 03:18:53;;;;;;;33.20;3.45;;;;;;;7.63;100.00;97554.72;5100653;28;20062;-65
2023/03/14 03:21:23;;;;;;;36.47;3.28;;;;;;;7.65;100.00;97555.25;5100628;28;20028;-65
2023/03/14 03:23:48;;;;;;;19.35;2.72;;;;;;;7.53;100.00;97552.78;5099250;28;20039;-64
2023/03/14 03:26:14;;;;;;;24.92;2.95;;;;;;;7.59;100.00;97543.72;5098574;28;20043;-65
2023/03/14 03:28:39;;;;;;;25.15;3.28;;;;;;;7.21;100.00;97488.66;5093949;28;20031;-65
2023/03/14 03:31:11;;;;;;;30.00;3.47;;;;;;;7.59;100.00;97546.41;5095398;28;20110;-65
2023/03/14 03:33:38;;;;;;;26.27;2.90;;;;;;;7.58;100.00;97550.13;5098964;28;20494;-65
2023/03/14 03:36:04;;;;;;;30.55;3.25;;;;;;;7.54;100.00;97562.41;5099628;28;20027;-65
2023/03/14 03:38:29;;;;;;;27.83;2.92;;;;;;;7.41;100.00;97550.31;5100210;28;20024;-65
2023/03/14 03:40:54;;;;;;;31.13;4.00;;;;;;;7.46;100.00;97560.25;5100271;28;20035;-65
2023/03/14 03:43:20;;;;;;;29.73;3.70;;;;;;;7.54;100.00;97573.13;5099900;28;20227;-65
2023/03/14 03:45:45;;;;;;;24.65;2.63;;;;;;;7.21;100.00;97537.59;5100099;28;20028;-65
2023/03/14 03:48:11;;;;;;;22.63;3.30;;;;;;;7.54;100.00;97575.78;5104813;28;20057;-67
2023/03/14 03:50:36;;;;;;;30.25;2.78;;;;;;;7.46;100.00;97582.44;5071193;28;20024;-65
2023/03/14 03:53:02;;;;;;;31.27;3.40;;;;;;;7.54;100.00;97571.25;5098791;28;20032;-65
2023/03/14 03:55:28;;;;;;;24.60;2.92;;;;;;;7.53;100.00;97566.97;5099160;28;20024;-65
2023/03/14 03:57:53;;;;;;;20.38;2.95;;;;;;;7.57;100.00;97577.16;5096486;28;20030;-65
2023/03/14 04:00:19;;;;;;;24.50;2.65;;;;;;;7.52;100.00;97565.38;5099976;28;20067;-65
2023/03/14 04:02:44;;;;;;;31.42;2.80;;;;;;;7.56;100.00;97565.66;5099636;28;20348;-65
2023/03/14 04:05:09;;;;;;;26.38;3.42;;;;;;;7.52;100.00;97562.69;5100089;28;20028;-65
2023/03/14 04:07:35;;;;;;;24.63;2.90;;;;;;;7.44;100.00;97557.81;5100222;28;20048;-65
2023/03/14 04:10:01;;;;;;;25.05;3.17;;;;;;;7.49;100.00;97571.22;5081522;28;20039;-64
2023/03/14 04:12:26;;;;;;;33.03;3.20;;;;;;;7.45;100.00;97559.44;5100575;28;20047;-65
2023/03/14 04:14:51;;;;;;;34.25;3.33;;;;;;;7.49;100.00;97570.44;5097819;28;20491;-65
2023/03/14 04:17:17;;;;;;;28.67;3.05;;;;;;;7.47;100.00;97568.00;5097577;28;20028;-64
2023/03/14 04:19:42;;;;;;;32.80;3.10;;;;;;;7.44;100.00;97573.84;5098979;28;20089;-65
2023/03/14 04:22:09;;;;;;;33.47;3.65;;;;;;;7.40;100.00;97583.47;5082166;28;20028;-65
2023/03/14 04:24:34;;;;;;;21.20;2.53;;;;;;;7.46;100.00;97587.00;5099171;28;20015;-65
2023/03/14 04:27:00;;;;;;;22.55;2.90;;;;;;;7.49;100.00;97586.47;5096238;28;20089;-68
2023/03/14 04:29:25;;;;;;;32.72;3.38;;;;;;;7.41;100.00;97573.56;5092874;28;20036;-65
2023/03/14 04:31:50;;;;;;;24.80;3.55;;;;;;;7.51;100.00;97587.81;5063335;28;20103;-65
2023/03/14 04:34:16;;;;;;;33.35;3.03;;;;;;;7.48;100.00;97591.03;5095496;28;20105;-65
2023/03/14 04:36:41;;;;;;;33.92;3.40;;;;;;;7.47;100.00;97599.28;5080134;28;20043;-65
2023/03/14 04:39:07;;;;;;;23.33;3.53;;;;;;;7.43;100.00;97607.03;5097142;28;20027;-65
2023/03/14 04:41:32;;;;;;;27.08;3.00;;;;;;;7.28;100.00;97586.34;5098263;28;20061;-65
2023/03/14 04:43:58;;;;;;;28.52;3.35;;;;;;;7.44;100.00;97621.22;5098353;28;20115;-65
2023/03/14 04:46:24;;;;;;;34.22;3.58;;;;;;;7.45;100.00;97628.16;5098208;28;20032;-65
2023/03/14 04:48:49;;;;;;;23.70;2.90;;;;;;;7.41;100.00;97633.22;5098833;28;20035;-65
2023/03/14 04:51:14;;;;;;;35.15;3.60;;;;;;;7.45;100.00;97634.34;5098439;28;20031;-65
2023/03/14 04:53:41;;;;;;;30.70;3.95;;;;;;;7.41;100.00;97619.84;5098196;28;20095;-65
2023/03/14 04:56:07;;;;;;;28.67;3.72;;;;;;;7.37;100.00;97632.13;5099042;28;20418;-65
2023/03/14 04:58:32;;;;;;;34.90;3.33;;;;;;;7.40;100.00;97628.13;5100718;28;20024;-65
2023/03/14 05:01:04;;;;;;;34.50;3.03;;;;;;;7.45;100.00;97633.50;5101540;28;20454;-64
2023/03/14 05:03:30;;;;;;;25.75;3.20;;;;;;;7.38;100.00;97635.59;5104382;28;20051;-65
2023/03/14 05:05:57;;;;;;;37.53;3.75;;;;;;;7.41;100.00;97635.91;5085387;28;20036;-65
2023/03/14 05:08:22;;;;;;;35.67;3.63;;;;;;;7.38;100.00;97633.72;5102207;28;20027;-65
2023/03/14 05:10:55;;;;;;;38.63;4.68;;;;;;;7.34;100.00;97629.16;5102412;28;20032;-64
2023/03/14 05:13:21;;;;;;;31.85;3.08;;;;;;;7.37;100.00;97632.13;5102210;28;20027;-65
2023/03/14 05:15:46;;;;;;;38.72;3.72;;;;;;;7.25;100.00;97612.78;5103856;28;20038;-64
2023/03/14 05:18:11;;;;;;;38.75;4.22;;;;;;;7.39;100.00;97630.00;5103983;28;20083;-65
2023/03/14 05:20:37;;;;;;;35.35;3.50;;;;;;;7.34;100.00;97626.50;5102342;28;20115;-65
2023/03/14 05:23:02;;;;;;;31.73;4.10;;;;;;;7.30;100.00;97628.88;5085729;28;20372;-65
2023/03/14 05:25:27;;;;;;;38.58;3.88;;;;;;;7.29;100.00;97632.63;5096708;28;20509;-66
2023/03/14 05:27:54;;;;;;;35.20;4.32;;;;;;;7.30;100.00;97636.88;5098341;28;20521;-65
2023/03/14 05:30:21;;;;;;;29.23;3.30;;;;;;;7.24;100.00;97638.72;5100183;28;20047;-65
2023/03/14 05:32:47;;;;;;;40.13;3.85;;;;;;;7.25;100.00;97635.00;5099856;28;20106;-68
2023/03/14 05:35:12;;;;;;;33.78;3.13;;;;;;;7.11;100.00;97612.41;5097752;28;20376;-65
2023/03/14 05:37:38;;;;;;;31.60;3.85;;;;;;;7.24;100.00;97632.56;5099411;28;20047;-65
2023/03/14 05:40:06;;;;;;;37.58;3.67;;;;;;;7.28;100.00;97629.13;5101838;28;20040;-65
2023/03/14 05:42:32;;;;;;;39.70;3.97;;;;;;;7.29;100.00;97635.28;5099346;28;20032;-65
2023/03/14 05:44:57;;;;;;;34.90;3.92;;;;;;;7.21;100.00;97633.88;5099407;28;20039;-66
2023/03/14 05:47:23;;;;;;;29.92;3.47;;;;;;;7.16;100.00;97625.03;5100498;28;20032;-65
2023/03/14 05:49:48;;;;;;;32.92;3.70;;;;;;;7.20;100.00;97655.53;5098477;28;20035;-65
2023/03/14 05:52:14;;;;;;;36.80;4.03;;;;;;;7.22;100.00;97650.75;5100413;28;20046;-66
2023/03/14 05:54:39;;;;;;;38.63;4.03;;;;;;;7.26;100.00;97647.28;5098921;28;20086;-65
2023/03/14 05:57:05;;;;;;;37.10;3.75;;;;;;;7.25;100.00;97650.22;5100584;28;20036;-65
2023/03/14 05:59:31;;;;;;;37.03;3.65;;;;;;;7.28;100.00;97655.06;5099882;28;20021;-65
2023/03/14 06:01:56;;;;;;;43.00;4.53;;;;;;;7.19;100.00;97653.94;5083415;28;20034;-66
2023/03/14 06:04:22;;;;;;;37.55;4.63;;;;;;;7.23;100.00;97655.03;5099982;28;20032;-66
2023/03/14 06:06:47;;;;;;;44.38;4.18;;;;;;;7.24;100.00;97653.94;5098766;28;20077;-65
2023/03/14 06:09:13;;;;;;;42.20;4.40;;;;;;;7.22;100.00;97651.56;5100201;28;20031;-65
2023/03/14 06:11:38;;;;;;;34.83;4.22;;;;;;;7.23;100.00;97649.69;5098484;28;20088;-64
2023/03/14 06:14:04;;;;;;;39.28;4.00;;;;;;;7.12;100.00;97630.06;5099451;28;20035;-65
2023/03/14 06:16:29;;;;;;;43.40;4.40;;;;;;;7.21;100.00;97655.25;5082937;28;20034;-65
2023/03/14 06:18:54;;;;;;;40.25;4.40;;;;;;;7.29;100.00;97656.69;5100989;28;20052;-65
2023/03/14 06:21:20;;;;;;;38.55;4.20;;;;;;;7.27;100.00;97658.78;5099897;28;20158;-65
2023/03/14 06:23:45;;;;;;;39.70;4.07;;;;;;;7.33;100.00;97662.31;5101746;28;20487;-65
2023/03/14 06:26:11;;;;;;;38.97;3.90;;;;;;;7.30;100.00;97669.00;5100817;28;20040;-65
2023/03/14 06:28:37;;;;;;;39.38;4.03;;;;;;;7.35;100.00;97681.59;5100417;28;20031;-65
2023/03/14 06:31:03;;;;;;;39.03;5.22;;;;;;;7.29;100.00;97676.22;5102988;28;20016;-65
2023/03/14 06:33:28;;;;;;;40.65;4.03;;;;;;;7.43;100.00;97681.13;5100655;28;20028;-65
2023/03/14 06:35:54;;;;;;;39.28;3.92;;;;;;;7.44;100.00;97686.22;5100572;28;20568;-64
2023/03/14 06:38:20;;;;;;;39.78;4.25;;;;;;;7.42;100.00;97682.19;5080918;28;20544;-65
2023/03/14 06:40:45;;;;;;;34.22;4.15;;;;;;;7.43;100.00;97687.28;5091806;28;20024;-64
2023/03/14 06:43:11;;;;;;;37.25;4.57;;;;;;;7.45;100.00;97692.38;5100077;28;20103;-64
2023/03/14 06:45:36;;;;;;;27.65;4.30;;;;;;;7.45;100.00;97705.75;5101103;28;20070;-65
2023/03/14 06:48:02;;;;;;;38.90;4.00;;;;;;;7.21;100.00;97684.69;5098781;28;20039;-64
2023/03/14 06:50:27;;;;;;;39.88;3.95;;;;;;;7.39;100.00;97712.13;5094094;28;20059;-65
2023/03/14 06:52:52;;;;;;;30.15;4.05;;;;;;;7.36;100.00;97705.41;5102404;28;20124;-65
2023/03/14 06:55:18;;;;;;;37.63;4.30;;;;;;;7.36;100.00;97716.13;5111685;28;20070;-66
2023/03/14 06:57:43;;;;;;;33.10;3.97;;;;;;;7.41;100.00;97724.16;5109902;28;20035;-66
2023/03/14 07:00:10;;;;;;;31.63;3.72;;;;;;;7.42;100.00;97720.47;5101387;28;20025;-65
2023/03/14 07:02:36;;;;;;;28.83;3.60;;;;;;;7.45;100.00;97719.13;5099309;28;20038;-64
2023/03/14 07:05:01;;;;;;;25.50;3.75;;;;;;;7.49;100.00;97729.06;5101614;28;20024;-65
2023/03/14 07:07:27;;;;;;;20.98;2.88;;;;;;;7.32;100.00;97698.97;5099167;28;20035;-65
2023/03/14 07:09:53;;;;;;;30.88;3.70;;;;;;;7.56;100.00;97726.19;5099324;28;20016;-65
2023/03/14 07:12:19;;;;;;;26.13;2.80;;;;;;;7.47;100.00;97731.19;5099896;28;20047;-65
2023/03/14 07:14:44;;;;;;;24.23;3.20;;;;;;;7.46;100.00;97729.59;5101265;28;20036;-65
2023/03/14 07:17:10;;;;;;;23.85;2.65;;;;;;;7.50;100.00;97749.41;5082792;28;20032;-65
2023/03/14 07:19:35;;;;;;;23.67;3.00;;;;;;;7.44;100.00;97758.44;5101955;28;20108;-65
2023/03/14 07:22:00;;;;;;;23.25;2.53;;;;;;;7.50;100.00;97746.72;5101889;28;20028;-66
2023/03/14 07:24:26;;;;;;;29.60;3.20;;;;;;;7.60;100.00;97755.91;5100578;28;20032;-65
2023/03/14 07:26:52;;;;;;;26.17;2.72;;;;;;;7.69;100.00;97759.75;5101743;28;20039;-65
2023/03/14 07:29:17;;;;;;;30.42;3.40;;;;;;;7.63;100.00;97752.72;5101904;28;20036;-65
2023/03/14 07:31:43;;;;;;;18.33;2.67;;;;;;;7.68;100.00;97750.09;5100211;28;20393;-65
2023/03/14 07:34:08;;;;;;;23.05;2.85;;;;;;;7.76;100.00;97753.09;5098811;28;20059;-64
2023/03/14 07:36:34;;;;;;;23.77;2.72;;;;;;;7.69;100.00;97752.53;5100561;28;20028;-65
2023/03/14 07:38:59;;;;;;;23.80;2.40;;;;;;;7.76;100.00;97754.97;5101259;28;20040;-65
2023/03/14 07:41:25;;;;;;;19.60;2.78;;;;;;;7.77;100.00;97740.53;5098852;28;20509;-65
2023/03/14 07:43:50;;;;;;;25.10;2.90;;;;;;;7.76;100.00;97760.34;5101340;28;20035;-65
2023/03/14 07:46:17;;;;;;;18.42;2.30;;;;;;;7.84;100.00;97759.84;5097798;28;20076;-65
2023/03/14 07:48:42;;;;;;;28.15;2.90;;;;;;;7.95;100.00;97766.91;5098947;28;20494;-65
2023/03/14 07:51:08;;;;;;;18.95;2.45;;;;;;;7.93;100.00;97766.34;5100064;28;20053;-66
2023/03/14 07:53:33;;;;;;;14.02;2.13;;;;;;;7.96;100.00;97757.81;5098862;28;20024;-64
2023/03/14 07:55:58;;;;;;;22.35;2.72;;;;;;;8.07;100.00;97773.94;5098798;28;20032;-65
2023/03/14 07:58:24;;;;;;;21.90;3.28;;;;;;;8.24;100.00;97775.44;5099193;28;20065;-65
2023/03/14 08:00:50;;;;;;;23.85;3.22;;;;;;;8.10;100.00;97766.19;5097729;28;20040;-65
2023/03/14 08:03:16;;;;;;;19.38;3.33;;;;;;;8.14;100.00;97759.25;5098682;28;20100;-65
2023/03/14 08:05:42;;;;;;;26.95;3.47;;;;;;;7.97;100.00;97762.09;5098683;28;20062;-65
2023/03/14 08:08:08;;;;;;;19.67;2.30;;;;;;;8.23;100.00;97779.16;5098243;28;20383;-65
2023/03/14 08:10:34;;;;;;;22.80;2.10;;;;;;;8.28;100.00;97790.97;5098739;28;20028;-66
2023/03/14 08:13:02;;;;;;;14.27;2.28;;;;;;;8.10;100.00;97786.81;5097094;28;20114;-65
2023/03/14 08:15:29;;;;;;;18.20;2.95;;;;;;;8.40;100.00;97789.72;5098262;28;20028;-66
2023/03/14 08:17:55;;;;;;;17.55;1.85;;;;;;;8.31;100.00;97785.91;5098072;28;20052;-65
2023/03/14 08:20:25;;;;;;;17.13;2.15;;;;;;;8.36;100.00;97785.94;5098305;28;20085;-65
2023/03/14 08:22:50;;;;;;;23.27;2.80;;;;;;;8.62;99.23;97791.47;5098436;28;20032;-65
2023/03/14 08:25:16;;;;;;;15.77;2.60;;;;;;;8.54;98.97;97792.75;5098937;28;20028;-65
2023/03/14 08:27:42;;;;;;;17.42;2.53;;;;;;;8.63;98.37;97793.88;5080946;28;20111;-65
2023/03/14 08:30:10;;;;;;;13.70;1.90;;;;;;;8.57;98.50;97797.59;5099591;28;20016;-66
2023/03/14 08:32:36;;;;;;;13.55;1.77;;;;;;;8.84;96.71;97793.97;5104511;28;20101;-65
2023/03/14 08:35:01;;;;;;;18.50;2.67;;;;;;;8.88;95.82;97795.88;5108005;28;20031;-65
2023/03/14 08:37:27;;;;;;;17.77;2.50;;;;;;;8.89;96.26;97796.69;5117425;28;20023;-65
2023/03/14 08:39:53;;;;;;;14.30;1.98;;;;;;;9.04;95.42;97812.03;5120149;28;20023;-65
2023/03/14 08:42:18;;;;;;;14.15;2.08;;;;;;;9.00;94.24;97790.28;5116724;28;20027;-65
2023/03/14 08:44:44;;;;;;;12.18;2.00;;;;;;;9.03;93.55;97830.00;5114761;28;20080;-66
2023/03/14 08:47:09;;;;;;;11.35;2.28;;;;;;;9.00;92.71;97833.19;5118864;28;20106;-65
2023/03/14 08:49:35;;;;;;;12.30;2.08;;;;;;;8.85;92.30;97833.94;5120532;28;20051;-65
2023/03/14 08:52:04;;;;;;;11.38;1.50;;;;;;;8.73;90.92;97832.53;5119496;28;20071;-65
2023/03/14 08:54:30;;;;;;;8.30;1.08;;;;;;;8.43;89.93;97825.94;5118368;28;20024;-65
2023/03/14 08:56:56;;;;;;;9.80;1.17;;;;;;;8.36;88.39;97825.31;5118721;28;20027;-65
2023/03/14 08:59:22;;;;;;;8.23;1.40;;;;;;;8.25;86.93;97845.88;5120011;28;20039;-65
2023/03/14 09:01:47;;;;;;;11.32;1.38;;;;;;;7.98;86.35;97845.94;5119601;28;20028;-65
2023/03/14 09:04:13;;;;;;;7.18;1.00;;;;;;;7.76;85.62;97827.25;5118392;28;20035;-64
2023/03/14 09:06:39;;;;;;;9.80;1.73;;;;;;;7.73;84.89;97855.31;5118249;28;20023;-65
2023/03/14 09:09:05;;;;;;;6.90;1.13;;;;;;;7.88;83.13;97849.31;5117375;28;20045;-65
2023/03/14 09:11:30;;;;;;;8.68;1.60;;;;;;;8.02;82.66;97844.34;5115363;28;20019;-65
2023/03/14 09:13:56;;;;;;;10.48;1.33;;;;;;;7.92;82.09;97850.41;5114552;28;20035;-65
2023/03/14 09:16:23;;;;;;;8.68;1.23;;;;;;;7.94;82.42;97852.84;5117633;28;20062;-66
2023/03/14 09:18:48;;;;;;;8.20;1.52;;;;;;;7.96;81.98;97848.84;5118831;28;20063;-65
2023/03/14 09:21:14;;;;;;;7.78;1.27;;;;;;;8.15;81.35;97853.84;5118601;28;20035;-66
2023/03/14 09:23:40;;;;;;;10.70;1.27;;;;;;;7.97;80.83;97853.13;5119850;28;20157;-65
2023/03/14 09:26:05;;;;;;;6.28;1.15;;;;;;;8.11;80.30;97866.94;5119775;28;20609;-65
2023/03/14 09:28:31;;;;;;;10.13;1.67;;;;;;;8.17;79.68;97867.75;5120063;28;20028;-65
2023/03/14 09:30:57;;;;;;;10.30;1.33;;;;;;;8.15;80.28;97877.94;5117547;28;20097;-65
2023/03/14 09:33:23;;;;;;;7.03;1.23;;;;;;;8.24;79.52;97887.94;5116453;28;20031;-65
2023/03/14 09:35:49;;;;;;;5.97;1.08;;;;;;;8.33;79.11;97890.94;5116266;28;20457;-65
2023/03/14 09:38:16;;;;;;;6.97;1.20;;;;;;;8.12;79.13;97887.28;5116549;28;20473;-66
2023/03/14 09:40:41;;;;;;;12.93;1.58;;;;;;;8.39;78.44;97897.97;5116567;28;20099;-66
2023/03/14 09:43:13;;;;;;;9.95;1.30;;;;;;;8.30;78.59;97906.72;5117690;28;20500;-65
2023/03/14 09:45:40;;;;;;;9.65;1.20;;;;;;;8.21;78.32;97903.69;5115174;28;20015;-65
2023/03/14 09:48:06;;;;;;;12.88;1.80;;;;;;;8.06;77.36;97893.66;5106475;28;20038;-65
2023/03/14 09:50:45;;;;;;;7.05;0.98;;;;;;;7.85;75.77;97922.09;5121251;28;20043;-65
2023/03/14 09:53:18;;;;;;;7.78;1.15;;;;;;;8.02;75.67;97918.53;5114734;28;20054;-65
2023/03/14 09:55:46;;;;;;;7.05;1.00;;;;;;;7.96;75.94;97923.00;5109865;28;20069;-65
2023/03/14 09:58:15;;;;;;;6.20;1.08;;;;;;;8.00;76.10;97935.63;5121199;28;20084;-65
2023/03/14 10:00:41;;;;;;;6.93;1.08;;;;;;;7.86;76.43;97939.78;5115529;28;20031;-65
2023/03/14 10:03:12;;;;;;;11.43;1.85;;;;;;;7.90;76.40;97948.91;5116286;28;20080;-64
2023/03/14 10:05:39;;;;;;;8.70;1.25;;;;;;;7.92;76.34;97959.38;5104688;28;20051;-65
2023/03/14 10:08:05;;;;;;;6.20;1.13;;;;;;;7.71;76.84;97953.78;5104736;28;20043;-65
2023/03/14 10:10:32;;;;;;;9.55;1.65;;;;;;;7.63;77.17;97954.25;5121598;28;20035;-65
2023/03/14 10:13:09;;;;;;;9.60;1.20;;;;;;;7.75;77.08;97962.16;5118538;28;20047;-64
2023/03/14 10:15:37;;;;;;;10.25;1.45;;;;;;;8.09;76.65;97962.78;5119551;28;20027;-65
2023/03/14 10:18:04;;;;;;;11.18;1.85;;;;;;;7.95;76.03;97958.88;5120459;28;20058;-64
2023/03/14 10:20:36;;;;;;;10.93;1.50;;;;;;;7.99;75.77;97971.50;5123302;28;20391;-65
2023/03/14 10:23:17;;;;;;;9.45;1.60;;;;;;;8.07;75.66;97962.22;5122920;28;20024;-65
2023/03/14 10:26:00;;;;;;;8.15;1.35;;;;;;;7.71;75.37;97977.88;5124839;28;20446;-65
2023/03/14 10:28:27;;;;;;;7.95;1.10;;;;;;;7.89;75.06;97975.94;5122506;28;20031;-66
2023/03/14 10:30:53;;;;;;;6.22;1.10;;;;;;;7.84;75.39;97984.72;5123913;28;20015;-64
2023/03/14 10:33:23;;;;;;;9.80;1.38;;;;;;;7.94;74.29;97995.53;5123326;28;20043;-65
2023/03/14 10:35:57;;;;;;;10.90;1.60;;;;;;;8.02;74.30;98002.34;5120850;28;20023;-65
2023/03/14 10:38:26;;;;;;;9.50;1.00;;;;;;;8.12;73.88;98001.63;5099680;28;20065;-65
2023/03/14 10:40:53;;;;;;;6.72;1.10;;;;;;;8.30;73.41;98017.34;5101778;28;20051;-65
2023/03/14 10:43:26;;;;;;;5.70;0.88;;;;;;;8.32;73.40;98020.59;5116002;28;20047;-68
2023/03/14 10:45:57;;;;;;;9.25;1.42;;;;;;;8.70;73.95;98025.00;5101833;28;20032;-65
2023/03/14 10:48:30;;;;;;;9.20;1.45;;;;;;;8.73;76.16;98022.88;5102358;28;20107;-66
2023/03/14 10:50:57;;;;;;;7.32;1.00;;;;;;;8.52;78.14;98030.72;5102870;28;20024;-66
2023/03/14 10:53:23;;;;;;;7.10;1.20;;;;;;;8.46;78.94;98040.59;5102825;28;20036;-66
2023/03/14 10:55:49;;;;;;;7.25;0.80;;;;;;;8.30;79.85;98046.81;5100945;28;20049;-65
2023/03/14 10:58:25;;;;;;;6.70;0.80;;;;;;;8.24;80.62;98047.81;5100541;28;20397;-66
2023/03/14 11:00:56;;;;;;;5.18;0.70;;;;;;;8.51;80.75;98052.41;5099000;28;20031;-65
2023/03/14 11:03:23;;;;;;;5.97;0.73;;;;;;;8.62;80.74;98048.78;5101076;28;20024;-65
2023/03/14 11:06:26;;;;;;;2.97;0.68;;;;;;;8.45;81.41;98051.56;5101266;28;20020;-65
2023/03/14 11:09:05;;;;;;;3.45;0.70;;;;;;;8.68;80.86;98053.94;5098640;28;20087;-67
2023/03/14 11:11:31;;;;;;;3.83;0.80;;;;;;;8.64;81.50;98057.38;5111442;28;20122;-65
2023/03/14 11:14:12;;;;;;;7.57;0.80;;;;;;;8.50;81.93;98067.69;5121513;28;20059;-65
2023/03/14 11:16:59;;;;;;;1.77;0.68;;;;;;;7.97;83.43;98078.03;5119740;28;20024;-65
2023/03/14 11:19:53;;;;;;;5.72;0.90;;;;;;;7.61;84.74;98086.66;5119454;28;20047;-65
2023/03/14 11:22:22;;;;;;;5.35;0.80;;;;;;;7.45;85.70;98093.66;5120966;28;20090;-64
2023/03/14 11:25:15;;;;;;;4.47;0.70;;;;;;;7.04;86.04;98103.72;5122887;28;20024;-65
2023/03/14 11:27:48;;;;;;;1.42;0.45;;;;;;;6.62;84.58;98088.03;5125444;28;20024;-66
2023/03/14 11:30:34;;;;;;;2.17;0.32;;;;;;;6.76;83.38;98118.78;5124420;28;20020;-66